Terminal Aerodrome Forecast
Issued by NWS

Home | Current Version | Previous Version | Text Only | Print | Product List | Glossary On
Versions: 1 2 3 4 5 6 7 8 9 10 11 12 13 14 15 16 17 18 19 20 21 22 23 24 25
000
FTUS46 KOTX 290526
TAFSFF
TAF
KSFF 290526Z 2906/3006 VRB04KT P6SM SCT200
     FM291200 21006KT P6SM FEW200
     FM291800 22011G19KT P6SM FEW080 BKN200
     FM300000 25011G19KT P6SM FEW080 BKN200=

USA.gov is the U.S. government's official web portal to all federal, state and local government web resources and services.